METAR de aeropuertos de Murcia y cercanos

 

LEAL - Alicante
Actualización: 24/05/2017 05:30
Despejado
Despejado
 Viento del ONO
Viento: ONO 6 km/h
Temperatura: 16°C
Rocío: 12°C
Humedad: 77%
Barómetro: 1020 hPa
Resumen: Despejado
Visibilidad: greater than 10 km
2017/05/24 03:30 LEAL 240330Z 30003KT CAVOK 16/12 Q1020 NOSIG
LEAB - Albacete
Actualización: 24/05/2017 05:00
Despejado
Despejado
 Viento del SE
Viento: SE 13 km/h
Temperatura: 12°C
Rocío: 4°C
Humedad: 58%
Barómetro: 1022 hPa
Resumen: Despejado
Visibilidad: greater than 10 km
2017/05/24 03:00 LEAB 240300Z 13007KT CAVOK 12/04 Q1022 NOSIG
LEAM - Almería
Actualización: 24/05/2017 05:30
Despejado
Despejado
 Viento del NNO
Viento: NNO 17 km/h
Temperatura: 21°C
Rocío: 5°C
Humedad: 35%
Barómetro: 1017 hPa
Resumen: Despejado
Visibilidad: greater than 10 km
2017/05/24 03:30 LEAM 240330Z 33009KT CAVOK 21/05 Q1017
 
LERI - Murcia/Alcantarilla
Actualización: 23/05/2017 20:00
NO Actualizado
Despejado
Despejado
 Viento del NE
Viento: NE 22 km/h
Temperatura: 24°C
Rocío: 11°C
Humedad: 44%
Barómetro: 1018 hPa
Resumen: Despejado
Visibilidad: greater than 10 km
2017/05/23 18:00 LERI 231800Z 05012KT CAVOK 24/11 Q1018 NOSIG
LELC - Murcia/San Javier
Actualización: 23/05/2017 23:00
NO Actualizado
Few Clouds
Few Clouds
 Viento del NE
Viento: NE 13 km/h
Temperatura: 20°C
Rocío: 16°C
Humedad: 78%
Barómetro: 1020 hPa
Nubosidad: Few Clouds
Visibilidad: 10 km
Cloud details: Few Clouds 457 m
2017/05/23 21:00 LELC 232100Z 04007KT 9999 FEW015 20/16 Q1020 NOSIG

La estación de MeteoMurcia.com, publica sus datos en los siguientes proyectos:

Meteoclimatic www.awekas.at

W3Counter
Web Analytics